sensor_id;sensor_type;location;lat;lon;timestamp;pressure;altitude;pressure_sealevel;temperature;humidity
52735;BME280;38631;47.572;10.704;2023-04-21T00:01:38;92112.94;;;3.90;100.00
52735;BME280;38631;47.572;10.704;2023-04-21T00:04:03;92112.28;;;3.75;100.00
52735;BME280;38631;47.572;10.704;2023-04-21T00:06:31;92107.75;;;3.80;100.00
52735;BME280;38631;47.572;10.704;2023-04-21T00:08:57;92098.53;;;3.88;100.00
52735;BME280;38631;47.572;10.704;2023-04-21T00:11:22;92113.47;;;3.93;100.00
52735;BME280;38631;47.572;10.704;2023-04-21T00:13:57;92112.00;;;3.76;100.00
52735;BME280;38631;47.572;10.704;2023-04-21T00:16:22;92103.38;;;3.71;100.00
52735;BME280;38631;47.572;10.704;2023-04-21T00:18:48;92105.47;;;3.68;100.00
52735;BME280;38631;47.572;10.704;2023-04-21T00:21:13;92115.88;;;3.89;100.00
52735;BME280;38631;47.572;10.704;2023-04-21T00:23:40;92104.47;;;3.99;100.00
52735;BME280;38631;47.572;10.704;2023-04-21T00:26:06;92095.13;;;3.87;100.00
52735;BME280;38631;47.572;10.704;2023-04-21T00:28:32;92100.44;;;3.77;100.00
52735;BME280;38631;47.572;10.704;2023-04-21T00:30:58;92102.03;;;3.73;100.00
52735;BME280;38631;47.572;10.704;2023-04-21T00:33:23;92105.25;;;3.65;100.00
52735;BME280;38631;47.572;10.704;2023-04-21T00:35:50;92094.38;;;3.82;100.00
52735;BME280;38631;47.572;10.704;2023-04-21T00:38:26;92094.03;;;3.88;100.00
52735;BME280;38631;47.572;10.704;2023-04-21T00:40:52;92093.47;;;3.97;100.00
52735;BME280;38631;47.572;10.704;2023-04-21T00:43:18;92093.03;;;3.84;100.00
52735;BME280;38631;47.572;10.704;2023-04-21T00:45:46;92107.50;;;3.37;100.00
52735;BME280;38631;47.572;10.704;2023-04-21T00:48:11;92110.31;;;3.56;100.00
52735;BME280;38631;47.572;10.704;2023-04-21T00:50:37;92091.81;;;3.72;100.00
52735;BME280;38631;47.572;10.704;2023-04-21T00:53:02;92089.28;;;3.61;100.00
52735;BME280;38631;47.572;10.704;2023-04-21T00:55:29;92103.44;;;3.60;100.00
52735;BME280;38631;47.572;10.704;2023-04-21T00:57:55;92096.09;;;3.57;100.00
52735;BME280;38631;47.572;10.704;2023-04-21T01:00:21;92094.16;;;3.34;100.00
52735;BME280;38631;47.572;10.704;2023-04-21T01:02:47;92092.41;;;3.58;100.00
52735;BME280;38631;47.572;10.704;2023-04-21T01:05:13;92083.34;;;3.40;100.00
52735;BME280;38631;47.572;10.704;2023-04-21T01:07:40;92080.66;;;3.51;100.00
52735;BME280;38631;47.572;10.704;2023-04-21T01:10:06;92082.69;;;3.64;100.00
52735;BME280;38631;47.572;10.704;2023-04-21T01:12:32;92080.00;;;3.74;100.00
52735;BME280;38631;47.572;10.704;2023-04-21T01:15:06;92068.16;;;3.77;100.00
52735;BME280;38631;47.572;10.704;2023-04-21T01:17:31;92076.16;;;3.61;100.00
52735;BME280;38631;47.572;10.704;2023-04-21T01:19:58;92078.38;;;3.39;100.00
52735;BME280;38631;47.572;10.704;2023-04-21T01:22:27;92075.09;;;3.57;100.00
52735;BME280;38631;47.572;10.704;2023-04-21T01:24:52;92071.91;;;3.65;100.00
52735;BME280;38631;47.572;10.704;2023-04-21T01:27:19;92068.69;;;3.74;100.00
52735;BME280;38631;47.572;10.704;2023-04-21T01:29:47;92068.91;;;3.43;100.00
52735;BME280;38631;47.572;10.704;2023-04-21T01:32:16;92070.41;;;3.54;100.00
52735;BME280;38631;47.572;10.704;2023-04-21T01:34:42;92076.59;;;3.68;100.00
52735;BME280;38631;47.572;10.704;2023-04-21T01:37:09;92052.63;;;3.41;100.00
52735;BME280;38631;47.572;10.704;2023-04-21T01:39:44;92056.06;;;3.41;100.00
52735;BME280;38631;47.572;10.704;2023-04-21T01:42:10;92053.06;;;3.53;100.00
52735;BME280;38631;47.572;10.704;2023-04-21T01:44:36;92055.09;;;3.66;100.00
52735;BME280;38631;47.572;10.704;2023-04-21T01:47:02;92060.66;;;3.60;100.00
52735;BME280;38631;47.572;10.704;2023-04-21T01:49:28;92067.94;;;3.68;100.00
52735;BME280;38631;47.572;10.704;2023-04-21T01:51:53;92074.03;;;3.58;100.00
52735;BME280;38631;47.572;10.704;2023-04-21T01:54:18;92076.97;;;3.57;100.00
52735;BME280;38631;47.572;10.704;2023-04-21T01:56:44;92066.31;;;3.38;100.00
52735;BME280;38631;47.572;10.704;2023-04-21T01:59:09;92061.50;;;3.50;100.00
52735;BME280;38631;47.572;10.704;2023-04-21T02:01:35;92065.72;;;3.51;100.00
52735;BME280;38631;47.572;10.704;2023-04-21T02:04:01;92067.88;;;3.39;100.00
52735;BME280;38631;47.572;10.704;2023-04-21T02:06:27;92071.75;;;3.52;100.00
52735;BME280;38631;47.572;10.704;2023-04-21T02:08:52;92069.38;;;3.50;100.00
52735;BME280;38631;47.572;10.704;2023-04-21T02:11:17;92062.81;;;3.53;100.00
52735;BME280;38631;47.572;10.704;2023-04-21T02:13:43;92059.88;;;3.15;100.00
52735;BME280;38631;47.572;10.704;2023-04-21T02:16:08;92058.81;;;3.16;100.00
52735;BME280;38631;47.572;10.704;2023-04-21T02:18:34;92039.66;;;3.15;100.00
52735;BME280;38631;47.572;10.704;2023-04-21T02:20:59;92027.66;;;3.09;100.00
52735;BME280;38631;47.572;10.704;2023-04-21T02:23:24;92018.69;;;3.15;100.00
52735;BME280;38631;47.572;10.704;2023-04-21T02:25:50;92011.66;;;3.06;100.00
52735;BME280;38631;47.572;10.704;2023-04-21T02:28:15;92017.00;;;3.35;100.00
52735;BME280;38631;47.572;10.704;2023-04-21T02:30:40;92017.78;;;3.35;100.00
52735;BME280;38631;47.572;10.704;2023-04-21T02:33:06;92028.97;;;3.46;100.00
52735;BME280;38631;47.572;10.704;2023-04-21T02:35:31;92041.50;;;3.59;100.00
52735;BME280;38631;47.572;10.704;2023-04-21T02:37:57;92036.03;;;3.51;100.00
52735;BME280;38631;47.572;10.704;2023-04-21T02:40:23;92038.31;;;3.62;100.00
52735;BME280;38631;47.572;10.704;2023-04-21T02:42:48;92043.09;;;3.55;100.00
52735;BME280;38631;47.572;10.704;2023-04-21T02:45:14;92027.91;;;3.52;100.00
52735;BME280;38631;47.572;10.704;2023-04-21T02:47:39;92029.63;;;3.28;100.00
52735;BME280;38631;47.572;10.704;2023-04-21T02:50:05;92030.34;;;3.38;100.00
52735;BME280;38631;47.572;10.704;2023-04-21T02:52:34;92025.31;;;3.47;100.00
52735;BME280;38631;47.572;10.704;2023-04-21T02:55:00;92028.44;;;3.49;100.00
52735;BME280;38631;47.572;10.704;2023-04-21T02:57:29;92019.28;;;3.46;100.00
52735;BME280;38631;47.572;10.704;2023-04-21T02:59:55;92021.00;;;3.22;100.00
52735;BME280;38631;47.572;10.704;2023-04-21T03:02:20;92013.22;;;3.46;100.00
52735;BME280;38631;47.572;10.704;2023-04-21T03:04:45;92011.09;;;3.14;100.00
52735;BME280;38631;47.572;10.704;2023-04-21T03:07:12;92017.00;;;3.35;100.00
52735;BME280;38631;47.572;10.704;2023-04-21T03:09:38;92023.31;;;3.34;100.00
52735;BME280;38631;47.572;10.704;2023-04-21T03:12:03;92016.81;;;3.26;100.00
52735;BME280;38631;47.572;10.704;2023-04-21T03:14:29;92017.25;;;2.94;100.00
52735;BME280;38631;47.572;10.704;2023-04-21T03:16:54;92021.28;;;3.20;100.00
52735;BME280;38631;47.572;10.704;2023-04-21T03:19:32;92014.78;;;3.13;100.00
52735;BME280;38631;47.572;10.704;2023-04-21T03:21:57;92023.59;;;3.27;100.00
52735;BME280;38631;47.572;10.704;2023-04-21T03:24:22;92019.59;;;3.40;100.00
52735;BME280;38631;47.572;10.704;2023-04-21T03:26:48;92011.84;;;3.19;100.00
52735;BME280;38631;47.572;10.704;2023-04-21T03:29:14;92017.13;;;3.14;100.00
52735;BME280;38631;47.572;10.704;2023-04-21T03:31:40;92004.31;;;3.08;100.00
52735;BME280;38631;47.572;10.704;2023-04-21T03:34:05;92005.19;;;2.93;100.00
52735;BME280;38631;47.572;10.704;2023-04-21T03:36:30;92017.44;;;3.02;100.00
52735;BME280;38631;47.572;10.704;2023-04-21T03:38:56;92025.06;;;3.04;100.00
52735;BME280;38631;47.572;10.704;2023-04-21T03:41:22;92020.88;;;2.98;100.00
52735;BME280;38631;47.572;10.704;2023-04-21T03:43:49;92027.91;;;3.08;100.00
52735;BME280;38631;47.572;10.704;2023-04-21T03:46:20;92029.28;;;2.95;100.00
52735;BME280;38631;47.572;10.704;2023-04-21T03:48:46;92031.72;;;2.86;100.00
52735;BME280;38631;47.572;10.704;2023-04-21T03:51:12;92031.28;;;3.13;100.00
52735;BME280;38631;47.572;10.704;2023-04-21T03:53:37;92029.38;;;3.29;100.00
52735;BME280;38631;47.572;10.704;2023-04-21T03:56:03;92036.00;;;3.16;100.00
52735;BME280;38631;47.572;10.704;2023-04-21T03:58:28;92040.34;;;3.36;100.00
52735;BME280;38631;47.572;10.704;2023-04-21T04:00:54;92037.44;;;3.38;100.00
52735;BME280;38631;47.572;10.704;2023-04-21T04:03:19;92032.41;;;3.02;100.00
52735;BME280;38631;47.572;10.704;2023-04-21T04:05:45;92032.22;;;3.33;100.00
52735;BME280;38631;47.572;10.704;2023-04-21T04:08:12;92032.19;;;3.38;100.00
52735;BME280;38631;47.572;10.704;2023-04-21T04:10:37;92039.56;;;3.31;100.00
52735;BME280;38631;47.572;10.704;2023-04-21T04:13:03;92034.22;;;3.46;100.00
52735;BME280;38631;47.572;10.704;2023-04-21T04:15:34;92043.81;;;3.27;100.00
52735;BME280;38631;47.572;10.704;2023-04-21T04:18:00;92046.00;;;3.14;100.00
52735;BME280;38631;47.572;10.704;2023-04-21T04:20:26;92033.06;;;3.23;100.00
52735;BME280;38631;47.572;10.704;2023-04-21T04:22:51;92030.66;;;3.32;100.00
52735;BME280;38631;47.572;10.704;2023-04-21T04:25:16;92030.81;;;3.45;100.00
52735;BME280;38631;47.572;10.704;2023-04-21T04:27:42;92029.41;;;3.24;100.00
52735;BME280;38631;47.572;10.704;2023-04-21T04:30:09;92035.34;;;3.40;100.00
52735;BME280;38631;47.572;10.704;2023-04-21T04:32:34;92035.34;;;3.40;100.00
52735;BME280;38631;47.572;10.704;2023-04-21T04:35:02;92032.06;;;3.53;100.00
52735;BME280;38631;47.572;10.704;2023-04-21T04:37:29;92030.09;;;3.40;100.00
52735;BME280;38631;47.572;10.704;2023-04-21T04:39:55;92017.94;;;3.49;100.00
52735;BME280;38631;47.572;10.704;2023-04-21T04:42:21;92023.72;;;3.51;100.00
52735;BME280;38631;47.572;10.704;2023-04-21T04:44:46;92023.47;;;3.47;100.00
52735;BME280;38631;47.572;10.704;2023-04-21T04:47:12;92024.56;;;3.41;100.00
52735;BME280;38631;47.572;10.704;2023-04-21T04:49:37;92025.88;;;3.44;100.00
52735;BME280;38631;47.572;10.704;2023-04-21T04:52:03;92031.75;;;3.65;100.00
52735;BME280;38631;47.572;10.704;2023-04-21T04:54:28;92038.09;;;3.59;100.00
52735;BME280;38631;47.572;10.704;2023-04-21T04:57:06;92036.44;;;3.68;100.00
52735;BME280;38631;47.572;10.704;2023-04-21T04:59:31;92042.25;;;3.65;100.00
52735;BME280;38631;47.572;10.704;2023-04-21T05:01:57;92047.34;;;3.51;100.00
52735;BME280;38631;47.572;10.704;2023-04-21T05:04:22;92049.94;;;3.56;100.00
52735;BME280;38631;47.572;10.704;2023-04-21T05:06:49;92066.09;;;3.68;100.00
52735;BME280;38631;47.572;10.704;2023-04-21T05:09:14;92054.63;;;3.59;100.00
52735;BME280;38631;47.572;10.704;2023-04-21T05:11:46;92066.34;;;3.72;100.00
52735;BME280;38631;47.572;10.704;2023-04-21T05:14:32;92073.16;;;3.73;100.00
52735;BME280;38631;47.572;10.704;2023-04-21T05:16:58;92067.13;;;3.33;100.00
52735;BME280;38631;47.572;10.704;2023-04-21T05:19:34;92067.28;;;3.52;100.00
52735;BME280;38631;47.572;10.704;2023-04-21T05:22:04;92080.50;;;3.37;100.00
52735;BME280;38631;47.572;10.704;2023-04-21T05:24:32;92063.72;;;3.33;100.00
52735;BME280;38631;47.572;10.704;2023-04-21T05:26:58;92069.59;;;3.59;100.00
52735;BME280;38631;47.572;10.704;2023-04-21T05:29:26;92090.41;;;3.45;100.00
52735;BME280;38631;47.572;10.704;2023-04-21T05:31:52;92092.56;;;3.33;100.00
52735;BME280;38631;47.572;10.704;2023-04-21T05:34:23;92102.69;;;3.55;100.00
52735;BME280;38631;47.572;10.704;2023-04-21T05:36:50;92092.66;;;3.62;100.00
52735;BME280;38631;47.572;10.704;2023-04-21T05:39:16;92106.63;;;3.52;100.00
52735;BME280;38631;47.572;10.704;2023-04-21T05:41:46;92102.78;;;3.39;100.00
52735;BME280;38631;47.572;10.704;2023-04-21T05:44:15;92103.22;;;3.57;100.00
52735;BME280;38631;47.572;10.704;2023-04-21T05:46:41;92104.94;;;3.72;100.00
52735;BME280;38631;47.572;10.704;2023-04-21T05:49:07;92103.44;;;3.60;100.00
52735;BME280;38631;47.572;10.704;2023-04-21T05:51:32;92099.63;;;3.37;100.00
52735;BME280;38631;47.572;10.704;2023-04-21T05:53:57;92102.97;;;3.48;100.00
52735;BME280;38631;47.572;10.704;2023-04-21T05:56:23;92094.03;;;3.54;100.00
52735;BME280;38631;47.572;10.704;2023-04-21T05:58:48;92110.81;;;3.53;100.00
52735;BME280;38631;47.572;10.704;2023-04-21T06:01:14;92105.91;;;3.46;100.00
52735;BME280;38631;47.572;10.704;2023-04-21T06:03:43;92103.00;;;3.43;100.00
52735;BME280;38631;47.572;10.704;2023-04-21T06:06:09;92102.22;;;3.42;100.00
52735;BME280;38631;47.572;10.704;2023-04-21T06:08:35;92115.16;;;3.34;100.00
52735;BME280;38631;47.572;10.704;2023-04-21T06:11:01;92107.53;;;3.32;100.00
52735;BME280;38631;47.572;10.704;2023-04-21T06:13:26;92097.28;;;3.36;100.00
52735;BME280;38631;47.572;10.704;2023-04-21T06:15:53;92101.13;;;3.49;100.00
52735;BME280;38631;47.572;10.704;2023-04-21T06:18:18;92112.81;;;3.72;100.00
52735;BME280;38631;47.572;10.704;2023-04-21T06:20:50;92110.13;;;3.82;100.00
52735;BME280;38631;47.572;10.704;2023-04-21T06:23:16;92098.34;;;3.79;100.00
52735;BME280;38631;47.572;10.704;2023-04-21T06:25:42;92095.78;;;4.03;100.00
52735;BME280;38631;47.572;10.704;2023-04-21T06:28:07;92106.31;;;3.98;100.00
52735;BME280;38631;47.572;10.704;2023-04-21T06:30:32;92102.34;;;4.01;100.00
52735;BME280;38631;47.572;10.704;2023-04-21T06:32:58;92101.00;;;4.38;100.00
52735;BME280;38631;47.572;10.704;2023-04-21T06:35:23;92099.75;;;4.30;100.00
52735;BME280;38631;47.572;10.704;2023-04-21T06:37:48;92098.69;;;4.31;100.00
52735;BME280;38631;47.572;10.704;2023-04-21T06:40:14;92090.72;;;4.41;100.00
52735;BME280;38631;47.572;10.704;2023-04-21T06:42:42;92096.00;;;4.65;100.00
52735;BME280;38631;47.572;10.704;2023-04-21T06:45:08;92089.63;;;4.71;100.00
52735;BME280;38631;47.572;10.704;2023-04-21T06:47:33;92093.78;;;4.78;100.00
52735;BME280;38631;47.572;10.704;2023-04-21T06:49:59;92088.41;;;4.88;100.00
52735;BME280;38631;47.572;10.704;2023-04-21T06:52:24;92082.75;;;5.00;100.00
52735;BME280;38631;47.572;10.704;2023-04-21T06:54:50;92080.56;;;5.07;100.00
52735;BME280;38631;47.572;10.704;2023-04-21T06:57:15;92082.16;;;5.27;100.00
52735;BME280;38631;47.572;10.704;2023-04-21T06:59:41;92080.16;;;5.37;100.00
52735;BME280;38631;47.572;10.704;2023-04-21T07:02:07;92073.63;;;5.54;100.00
52735;BME280;38631;47.572;10.704;2023-04-21T07:04:34;92075.31;;;5.82;100.00
52735;BME280;38631;47.572;10.704;2023-04-21T07:06:59;92074.19;;;6.08;100.00
52735;BME280;38631;47.572;10.704;2023-04-21T07:09:25;92077.66;;;6.36;100.00
52735;BME280;38631;47.572;10.704;2023-04-21T07:11:52;92089.75;;;6.23;100.00
52735;BME280;38631;47.572;10.704;2023-04-21T07:14:17;92080.16;;;6.13;100.00
52735;BME280;38631;47.572;10.704;2023-04-21T07:16:43;92073.69;;;6.05;100.00
52735;BME280;38631;47.572;10.704;2023-04-21T07:19:09;92076.38;;;6.33;100.00
52735;BME280;38631;47.572;10.704;2023-04-21T07:21:34;92062.72;;;5.98;100.00
52735;BME280;38631;47.572;10.704;2023-04-21T07:24:01;92067.00;;;5.56;100.00
52735;BME280;38631;47.572;10.704;2023-04-21T07:26:27;92078.44;;;5.47;100.00
52735;BME280;38631;47.572;10.704;2023-04-21T07:28:53;92074.97;;;5.32;100.00
52735;BME280;38631;47.572;10.704;2023-04-21T07:31:25;92078.94;;;5.30;100.00
52735;BME280;38631;47.572;10.704;2023-04-21T07:33:54;92068.22;;;5.45;100.00
52735;BME280;38631;47.572;10.704;2023-04-21T07:36:20;92064.88;;;5.39;100.00
52735;BME280;38631;47.572;10.704;2023-04-21T07:38:45;92063.81;;;5.40;100.00
52735;BME280;38631;47.572;10.704;2023-04-21T07:41:12;92065.41;;;5.36;100.00
52735;BME280;38631;47.572;10.704;2023-04-21T07:43:38;92067.72;;;5.43;100.00
52735;BME280;38631;47.572;10.704;2023-04-21T07:46:08;92062.19;;;5.45;100.00
52735;BME280;38631;47.572;10.704;2023-04-21T07:48:33;92068.06;;;5.55;100.00
52735;BME280;38631;47.572;10.704;2023-04-21T07:51:00;92064.06;;;5.39;100.00
52735;BME280;38631;47.572;10.704;2023-04-21T07:53:27;92054.31;;;5.58;100.00
52735;BME280;38631;47.572;10.704;2023-04-21T07:55:53;92050.19;;;5.71;100.00
52735;BME280;38631;47.572;10.704;2023-04-21T07:58:26;92057.34;;;5.52;100.00
52735;BME280;38631;47.572;10.704;2023-04-21T08:00:52;92052.19;;;5.79;100.00
52735;BME280;38631;47.572;10.704;2023-04-21T08:03:17;92053.13;;;5.70;100.00
52735;BME280;38631;47.572;10.704;2023-04-21T08:05:43;92050.09;;;5.76;100.00
52735;BME280;38631;47.572;10.704;2023-04-21T08:08:09;92052.75;;;5.76;100.00
52735;BME280;38631;47.572;10.704;2023-04-21T08:10:35;92048.28;;;5.77;100.00
52735;BME280;38631;47.572;10.704;2023-04-21T08:13:00;92055.53;;;5.85;100.00
52735;BME280;38631;47.572;10.704;2023-04-21T08:15:27;92044.66;;;5.73;100.00
52735;BME280;38631;47.572;10.704;2023-04-21T08:17:54;92053.94;;;5.84;100.00
52735;BME280;38631;47.572;10.704;2023-04-21T08:20:20;92053.44;;;6.01;100.00
52735;BME280;38631;47.572;10.704;2023-04-21T08:22:45;92045.88;;;6.13;100.00
52735;BME280;38631;47.572;10.704;2023-04-21T08:25:12;92053.13;;;6.21;100.00
52735;BME280;38631;47.572;10.704;2023-04-21T08:27:37;92053.03;;;6.26;100.00
52735;BME280;38631;47.572;10.704;2023-04-21T08:30:04;92052.94;;;6.32;100.00
52735;BME280;38631;47.572;10.704;2023-04-21T08:32:30;92055.19;;;6.24;100.00
52735;BME280;38631;47.572;10.704;2023-04-21T08:34:55;92055.22;;;6.38;100.00
52735;BME280;38631;47.572;10.704;2023-04-21T08:37:21;92058.25;;;6.45;100.00
52735;BME280;38631;47.572;10.704;2023-04-21T08:39:47;92055.53;;;6.51;100.00
52735;BME280;38631;47.572;10.704;2023-04-21T08:42:16;92048.09;;;6.53;100.00
52735;BME280;38631;47.572;10.704;2023-04-21T08:44:42;92051.34;;;6.49;100.00
52735;BME280;38631;47.572;10.704;2023-04-21T08:47:11;92064.53;;;6.63;100.00
52735;BME280;38631;47.572;10.704;2023-04-21T08:49:38;92063.16;;;6.52;100.00
52735;BME280;38631;47.572;10.704;2023-04-21T08:52:04;92055.25;;;6.52;100.00
52735;BME280;38631;47.572;10.704;2023-04-21T08:54:29;92062.66;;;6.64;100.00
52735;BME280;38631;47.572;10.704;2023-04-21T08:56:55;92058.47;;;6.63;100.00
52735;BME280;38631;47.572;10.704;2023-04-21T08:59:21;92063.06;;;6.71;100.00
52735;BME280;38631;47.572;10.704;2023-04-21T09:02:12;92059.34;;;6.86;100.00
52735;BME280;38631;47.572;10.704;2023-04-21T09:04:41;92070.41;;;6.88;100.00
52735;BME280;38631;47.572;10.704;2023-04-21T09:07:09;92064.13;;;6.84;100.00
52735;BME280;38631;47.572;10.704;2023-04-21T09:09:54;92063.94;;;6.94;100.00
52735;BME280;38631;47.572;10.704;2023-04-21T09:12:22;92056.72;;;7.00;100.00
52735;BME280;38631;47.572;10.704;2023-04-21T09:14:49;92065.44;;;7.00;100.00
52735;BME280;38631;47.572;10.704;2023-04-21T09:17:15;92063.56;;;7.01;100.00
52735;BME280;38631;47.572;10.704;2023-04-21T09:19:41;92055.94;;;7.13;100.00
52735;BME280;38631;47.572;10.704;2023-04-21T09:22:08;92055.22;;;7.21;100.00
52735;BME280;38631;47.572;10.704;2023-04-21T09:24:48;92052.97;;;7.14;100.00
52735;BME280;38631;47.572;10.704;2023-04-21T09:27:22;92056.09;;;7.30;100.00
52735;BME280;38631;47.572;10.704;2023-04-21T09:29:47;92056.28;;;7.34;100.00
52735;BME280;38631;47.572;10.704;2023-04-21T09:32:19;92050.50;;;7.46;99.03
52735;BME280;38631;47.572;10.704;2023-04-21T09:34:48;92052.25;;;7.50;97.67
52735;BME280;38631;47.572;10.704;2023-04-21T09:37:15;92055.19;;;7.49;96.76
52735;BME280;38631;47.572;10.704;2023-04-21T09:39:50;92049.69;;;7.59;97.92
52735;BME280;38631;47.572;10.704;2023-04-21T09:42:16;92052.63;;;7.57;94.92
52735;BME280;38631;47.572;10.704;2023-04-21T09:44:41;92051.66;;;7.53;95.27
52735;BME280;38631;47.572;10.704;2023-04-21T09:47:09;92056.16;;;7.53;95.23
52735;BME280;38631;47.572;10.704;2023-04-21T09:49:37;92053.03;;;7.51;96.71
52735;BME280;38631;47.572;10.704;2023-04-21T09:52:10;92051.44;;;7.64;95.99
52735;BME280;38631;47.572;10.704;2023-04-21T09:54:44;92059.25;;;7.69;95.13
52735;BME280;38631;47.572;10.704;2023-04-21T09:57:12;92054.81;;;7.78;96.49
52735;BME280;38631;47.572;10.704;2023-04-21T09:59:41;92050.72;;;7.72;94.56
52735;BME280;38631;47.572;10.704;2023-04-21T10:02:10;92052.72;;;7.89;95.53
52735;BME280;38631;47.572;10.704;2023-04-21T10:04:36;92057.09;;;7.93;97.88
52735;BME280;38631;47.572;10.704;2023-04-21T10:07:05;92049.94;;;7.94;96.44
52735;BME280;38631;47.572;10.704;2023-04-21T10:09:55;92051.22;;;7.96;96.76
52735;BME280;38631;47.572;10.704;2023-04-21T10:12:22;92044.66;;;8.16;96.96
52735;BME280;38631;47.572;10.704;2023-04-21T10:14:52;92046.81;;;8.14;95.93
52735;BME280;38631;47.572;10.704;2023-04-21T10:17:19;92042.81;;;8.39;94.36
52735;BME280;38631;47.572;10.704;2023-04-21T10:19:57;92040.94;;;8.40;94.59
52735;BME280;38631;47.572;10.704;2023-04-21T10:22:30;92041.84;;;8.35;93.29
52735;BME280;38631;47.572;10.704;2023-04-21T10:24:57;92043.88;;;8.38;92.93
52735;BME280;38631;47.572;10.704;2023-04-21T10:27:39;92031.91;;;8.72;94.87
52735;BME280;38631;47.572;10.704;2023-04-21T10:30:19;92038.94;;;8.77;92.66
52735;BME280;38631;47.572;10.704;2023-04-21T10:35:21;92025.97;;;8.67;93.13
52735;BME280;38631;47.572;10.704;2023-04-21T10:37:48;92019.44;;;8.73;92.29
52735;BME280;38631;47.572;10.704;2023-04-21T10:40:34;92021.84;;;8.83;93.08
52735;BME280;38631;47.572;10.704;2023-04-21T10:43:04;92009.56;;;8.96;92.95
52735;BME280;38631;47.572;10.704;2023-04-21T10:45:30;92016.91;;;9.07;94.76
52735;BME280;38631;47.572;10.704;2023-04-21T10:48:01;92012.31;;;9.83;91.84
52735;BME280;38631;47.572;10.704;2023-04-21T10:50:29;92015.91;;;9.87;91.67
52735;BME280;38631;47.572;10.704;2023-04-21T10:52:58;92013.84;;;9.40;90.10
52735;BME280;38631;47.572;10.704;2023-04-21T10:55:32;92003.91;;;9.81;90.64
52735;BME280;38631;47.572;10.704;2023-04-21T10:58:02;92016.06;;;9.90;90.34
52735;BME280;38631;47.572;10.704;2023-04-21T11:00:35;92014.22;;;9.91;87.90
52735;BME280;38631;47.572;10.704;2023-04-21T11:03:06;91994.53;;;9.74;90.55
52735;BME280;38631;47.572;10.704;2023-04-21T11:05:39;92011.84;;;10.07;93.76
52735;BME280;38631;47.572;10.704;2023-04-21T11:08:16;92016.03;;;10.25;92.74
52735;BME280;38631;47.572;10.704;2023-04-21T11:10:50;91989.81;;;10.15;89.86
52735;BME280;38631;47.572;10.704;2023-04-21T11:13:21;92001.84;;;10.30;90.93
52735;BME280;38631;47.572;10.704;2023-04-21T11:16:07;92009.41;;;10.57;90.99
52735;BME280;38631;47.572;10.704;2023-04-21T11:18:43;92010.81;;;10.55;92.59
52735;BME280;38631;47.572;10.704;2023-04-21T11:21:20;91999.63;;;10.49;89.73
52735;BME280;38631;47.572;10.704;2023-04-21T11:24:06;91986.94;;;10.55;92.26
52735;BME280;38631;47.572;10.704;2023-04-21T11:26:40;91986.22;;;10.37;91.40
52735;BME280;38631;47.572;10.704;2023-04-21T11:29:10;91996.91;;;10.67;89.39
52735;BME280;38631;47.572;10.704;2023-04-21T11:31:39;91991.34;;;10.42;92.45
52735;BME280;38631;47.572;10.704;2023-04-21T11:34:19;92001.91;;;10.59;91.51
52735;BME280;38631;47.572;10.704;2023-04-21T11:36:53;91986.88;;;10.72;91.10
52735;BME280;38631;47.572;10.704;2023-04-21T11:39:32;91981.25;;;10.74;87.41
52735;BME280;38631;47.572;10.704;2023-04-21T11:42:05;91989.75;;;10.88;88.02
52735;BME280;38631;47.572;10.704;2023-04-21T11:44:49;91987.63;;;11.11;87.22
52735;BME280;38631;47.572;10.704;2023-04-21T11:47:19;91996.13;;;11.25;86.62
52735;BME280;38631;47.572;10.704;2023-04-21T11:49:57;91986.81;;;11.19;83.86
52735;BME280;38631;47.572;10.704;2023-04-21T11:52:30;91985.47;;;11.05;86.12
52735;BME280;38631;47.572;10.704;2023-04-21T11:55:11;91988.97;;;11.26;85.08
52735;BME280;38631;47.572;10.704;2023-04-21T11:57:39;91987.00;;;11.35;83.13
52735;BME280;38631;47.572;10.704;2023-04-21T12:00:13;91979.59;;;11.20;83.62
52735;BME280;38631;47.572;10.704;2023-04-21T12:02:43;91964.47;;;11.41;83.59
52735;BME280;38631;47.572;10.704;2023-04-21T12:05:10;91964.09;;;11.52;83.05
52735;BME280;38631;47.572;10.704;2023-04-21T12:07:45;91966.19;;;11.58;80.94
52735;BME280;38631;47.572;10.704;2023-04-21T12:10:19;91986.06;;;11.82;81.81
52735;BME280;38631;47.572;10.704;2023-04-21T12:12:45;91972.19;;;11.76;81.69
52735;BME280;38631;47.572;10.704;2023-04-21T12:15:17;91987.13;;;11.89;81.27
52735;BME280;38631;47.572;10.704;2023-04-21T12:17:46;91980.75;;;11.82;77.11
52735;BME280;38631;47.572;10.704;2023-04-21T12:20:15;91974.19;;;12.00;75.77
52735;BME280;38631;47.572;10.704;2023-04-21T12:22:42;91979.81;;;12.20;74.74
52735;BME280;38631;47.572;10.704;2023-04-21T12:25:07;91977.59;;;12.22;74.39
52735;BME280;38631;47.572;10.704;2023-04-21T12:27:33;91970.94;;;12.28;75.34
52735;BME280;38631;47.572;10.704;2023-04-21T12:29:59;91975.41;;;12.24;70.52
52735;BME280;38631;47.572;10.704;2023-04-21T12:32:25;91973.63;;;11.95;72.39
52735;BME280;38631;47.572;10.704;2023-04-21T12:34:51;91984.16;;;12.24;69.16
52735;BME280;38631;47.572;10.704;2023-04-21T12:37:17;91976.97;;;12.37;70.13
52735;BME280;38631;47.572;10.704;2023-04-21T12:39:43;91982.91;;;12.67;71.88
52735;BME280;38631;47.572;10.704;2023-04-21T12:42:09;91988.13;;;12.51;74.20
52735;BME280;38631;47.572;10.704;2023-04-21T12:44:38;91973.34;;;12.66;66.12
52735;BME280;38631;47.572;10.704;2023-04-21T12:47:06;91973.47;;;12.70;67.02
52735;BME280;38631;47.572;10.704;2023-04-21T12:49:31;91980.47;;;12.74;69.48
52735;BME280;38631;47.572;10.704;2023-04-21T12:52:05;91983.59;;;13.01;70.35
52735;BME280;38631;47.572;10.704;2023-04-21T12:54:31;91973.94;;;12.96;70.56
52735;BME280;38631;47.572;10.704;2023-04-21T12:56:57;91977.03;;;12.86;67.55